This is the latest recevied weather packets stored in our database for station/object SP6TSE-13. If no packets are shown the sender has not sent any weather packets the latest 10 day(s).
| Time | Temp. | Humidity | Pressure | Rain* | Wind** | Luminosity | Snow |
|---|---|---|---|---|---|---|---|
| 1778088514 | 18.33° C | 72% | 980.9 hPa | - | - | 0 W/m² | - |
| 1778086714 | 19.44° C | 63% | 980.7 hPa | - | - | 0 W/m² | - |
| 1778073389 | 22.78° C | 42% | 981.7 hPa | - | - | 0 W/m² | - |
| 1778069189 | 20.56° C | 53% | 981.8 hPa | - | - | 0 W/m² | - |
| 1778066789 | 18.89° C | 53% | 981.7 hPa | - | - | 0 W/m² | - |
| 1778060789 | 18.89° C | 53% | 981.7 hPa | - | - | 0 W/m² | - |
| 1778059589 | 20.56° C | 54% | 981.4 hPa | - | - | 0 W/m² | - |
| 1778058389 | 20.56° C | 54% | 981.4 hPa | - | - | 0 W/m² | - |
| 1778055989 | 18.89° C | 63% | 981.5 hPa | - | - | 0 W/m² | - |
| 1778052989 | 14.44° C | 100% | 981.4 hPa | - | - | 0 W/m² | - |
| 1778051189 | 14.44° C | 100% | 981.4 hPa | - | - | 0 W/m² | - |
| 1778050589 | 14.44° C | 100% | 981.4 hPa | - | - | 0 W/m² | - |
| 1778049989 | 14.44° C | 100% | 981.4 hPa | - | - | 0 W/m² | - |
| 1778045189 | 11.11° C | 100% | 981.2 hPa | - | - | 0 W/m² | - |
| 1778043989 | 11.11° C | 100% | 981.2 hPa | - | - | 0 W/m² | - |
| 1778036189 | 12.22° C | 100% | 981.6 hPa | - | - | 0 W/m² | - |
| 1778034389 | 12.22° C | 100% | 981.6 hPa | - | - | 0 W/m² | - |
| 1778024789 | 12.78° C | 100% | 981.6 hPa | - | - | 0 W/m² | - |
| 1778019504 | 13.33° C | 100% | 982.4 hPa | - | - | 0 W/m² | - |
| 1778012904 | 14.44° C | 100% | 982.6 hPa | - | - | 0 W/m² | - |
| 1778011704 | 15° C | 100% | 982.4 hPa | - | - | 0 W/m² | - |
| 1778011103 | 15° C | 100% | 982.4 hPa | - | - | 0 W/m² | - |
| 1778009904 | 15° C | 100% | 982.4 hPa | - | - | 0 W/m² | - |
| 1778007504 | 18.33° C | 80% | 982.2 hPa | - | - | 0 W/m² | - |
| 1778004504 | 18.33° C | 80% | 982.2 hPa | - | - | 0 W/m² | - |
* Rain since midnight (hover to see other rain measurements)
** Current wind speed in m/s (hover to see current wind gust speed)